Time;durP1;ratioP1;P1;durP2;ratioP2;P2;SDS_P1;SDS_P2;PMS_P1;PMS_P2;Temp;Humidity;BMP_temperature;BMP_pressure;BME280_temperature;BME280_humidity;BME280_pressure;Samples;Min_cycle;Max_cycle;Signal;HPM_P1;HPM_P2
2023/12/31 00:01:25;;;;;;;1.80;1.42;;;;;;;8.93;100.00;100235.75;5023521;28;20339;-75
2023/12/31 00:03:50;;;;;;;2.60;1.63;;;;;;;8.92;100.00;100237.53;5026640;28;20332;-75
2023/12/31 00:06:16;;;;;;;2.60;1.50;;;;;;;8.92;100.00;100221.03;5022783;28;20092;-75
2023/12/31 00:08:41;;;;;;;2.00;1.30;;;;;;;8.91;100.00;100208.88;5023722;28;20090;-75
2023/12/31 00:11:06;;;;;;;2.17;1.20;;;;;;;8.93;100.00;100205.28;5021332;28;20109;-75
2023/12/31 00:13:32;;;;;;;3.17;1.42;;;;;;;8.89;100.00;100214.16;5023295;28;20041;-75
2023/12/31 00:15:57;;;;;;;1.33;1.17;;;;;;;8.90;100.00;100210.66;5025880;28;20033;-75
2023/12/31 00:18:22;;;;;;;1.40;1.27;;;;;;;8.92;100.00;100207.97;5021391;28;20040;-75
2023/12/31 00:20:48;;;;;;;1.20;1.20;;;;;;;8.93;100.00;100207.91;5027751;28;20044;-75
2023/12/31 00:23:13;;;;;;;2.03;1.33;;;;;;;8.92;100.00;100203.59;5030647;28;20033;-75
2023/12/31 00:25:40;;;;;;;2.88;1.15;;;;;;;8.91;100.00;100201.03;5029507;28;20121;-75
2023/12/31 00:28:05;;;;;;;1.17;1.00;;;;;;;8.88;100.00;100190.72;5031062;28;20041;-75
2023/12/31 00:30:30;;;;;;;1.25;1.13;;;;;;;8.90;100.00;100176.69;5034639;28;20075;-75
2023/12/31 00:32:56;;;;;;;1.30;1.20;;;;;;;8.90;100.00;100188.91;5026052;28;20037;-75
2023/12/31 00:35:21;;;;;;;3.60;1.45;;;;;;;8.88;100.00;100173.31;5036810;28;20075;-75
2023/12/31 00:37:47;;;;;;;1.30;1.20;;;;;;;8.89;100.00;100174.16;5017809;28;20033;-75
2023/12/31 00:40:12;;;;;;;1.55;1.10;;;;;;;8.87;100.00;100158.53;5035056;28;20052;-75
2023/12/31 00:42:39;;;;;;;1.42;1.05;;;;;;;8.86;100.00;100159.47;5036619;28;20328;-75
2023/12/31 00:45:05;;;;;;;2.83;1.40;;;;;;;8.87;100.00;100165.53;5037066;28;20335;-75
2023/12/31 00:47:30;;;;;;;3.38;1.48;;;;;;;8.85;100.00;100155.16;5037179;28;20052;-75
2023/12/31 00:49:56;;;;;;;2.38;1.33;;;;;;;8.87;100.00;100150.72;5036611;28;20047;-75
2023/12/31 00:52:21;;;;;;;1.88;0.90;;;;;;;8.88;100.00;100144.59;5037021;28;20044;-75
2023/12/31 00:54:50;;;;;;;1.92;1.00;;;;;;;8.87;100.00;100129.81;5037631;28;20376;-75
2023/12/31 00:57:15;;;;;;;2.10;1.33;;;;;;;8.88;100.00;100120.22;5036583;28;20037;-75
2023/12/31 00:59:41;;;;;;;1.52;1.02;;;;;;;8.89;100.00;100120.16;5037392;28;20056;-75
2023/12/31 01:02:06;;;;;;;1.20;1.00;;;;;;;8.87;100.00;100115.94;5036347;28;20143;-75
2023/12/31 01:04:31;;;;;;;3.25;0.90;;;;;;;8.83;100.00;100110.84;5037644;28;20052;-75
2023/12/31 01:06:57;;;;;;;1.05;0.90;;;;;;;8.87;100.00;100106.31;5036252;28;20112;-75
2023/12/31 01:09:22;;;;;;;1.20;0.90;;;;;;;8.89;100.00;100103.66;5025842;28;20045;-75
2023/12/31 01:11:47;;;;;;;1.13;0.90;;;;;;;8.87;100.00;100108.94;5020419;28;20041;-75
2023/12/31 01:14:14;;;;;;;1.45;1.00;;;;;;;8.84;100.00;100096.00;5036409;28;20041;-75
2023/12/31 01:16:40;;;;;;;2.50;1.10;;;;;;;8.84;100.00;100099.47;5036482;28;20091;-75
2023/12/31 01:19:05;;;;;;;3.35;1.10;;;;;;;8.81;100.00;100085.72;5036068;28;20036;-75
2023/12/31 01:21:31;;;;;;;0.95;0.90;;;;;;;8.82;100.00;100082.19;5036421;28;20045;-75
2023/12/31 01:23:56;;;;;;;1.10;1.00;;;;;;;8.84;100.00;100096.00;5020178;28;20152;-75
2023/12/31 01:26:21;;;;;;;0.90;0.70;;;;;;;8.84;100.00;100081.22;5036855;28;20045;-75
2023/12/31 01:28:47;;;;;;;1.10;1.00;;;;;;;8.81;100.00;100078.72;5020642;28;20101;-75
2023/12/31 01:31:21;;;;;;;1.13;0.80;;;;;;;8.82;100.00;100076.94;5025377;28;20033;-75
2023/12/31 01:33:47;;;;;;;1.75;0.90;;;;;;;8.84;100.00;100064.66;5036099;28;20104;-75
2023/12/31 01:36:16;;;;;;;1.85;0.93;;;;;;;8.83;100.00;100060.38;5035704;28;20332;-75
2023/12/31 01:38:42;;;;;;;0.70;0.70;;;;;;;8.84;100.00;100049.00;5023600;28;20230;-75
2023/12/31 01:41:09;;;;;;;1.20;1.10;;;;;;;8.87;100.00;100050.66;5015153;28;20348;-75
2023/12/31 01:43:35;;;;;;;1.98;1.00;;;;;;;8.83;100.00;100029.06;5016967;28;20042;-75
2023/12/31 01:46:00;;;;;;;2.10;0.90;;;;;;;8.83;100.00;100032.50;5016319;28;20303;-75
2023/12/31 01:48:27;;;;;;;1.23;0.80;;;;;;;8.87;100.00;100027.16;5035301;28;20061;-75
2023/12/31 01:50:52;;;;;;;1.95;1.10;;;;;;;8.84;100.00;100026.38;5035767;28;20033;-75
2023/12/31 01:53:19;;;;;;;1.90;1.10;;;;;;;8.86;100.00;100033.28;5035628;28;20041;-75
2023/12/31 01:55:46;;;;;;;2.47;1.17;;;;;;;8.87;100.00;100014.09;5036599;28;20395;-75
2023/12/31 01:58:14;;;;;;;0.90;0.90;;;;;;;8.87;100.00;100014.09;5032691;28;20079;-75
2023/12/31 02:00:39;;;;;;;1.60;0.98;;;;;;;8.85;100.00;100011.56;5019516;28;20447;-75
2023/12/31 02:03:05;;;;;;;1.83;1.00;;;;;;;8.82;100.00;100006.47;5035139;28;20320;-75
2023/12/31 02:05:31;;;;;;;1.33;1.08;;;;;;;8.80;100.00;100006.56;5036277;28;20126;-75
2023/12/31 02:07:56;;;;;;;1.98;0.90;;;;;;;8.81;100.00;99995.19;5035643;28;20069;-75
2023/12/31 02:10:22;;;;;;;1.83;0.93;;;;;;;8.84;100.00;99988.94;5017354;28;20054;-75
2023/12/31 02:12:47;;;;;;;1.38;0.80;;;;;;;8.83;100.00;99989.88;5016122;28;20383;-75
2023/12/31 02:15:13;;;;;;;3.13;1.33;;;;;;;8.82;100.00;99985.56;5015464;28;20074;-75
2023/12/31 02:17:38;;;;;;;1.40;1.02;;;;;;;8.82;100.00;99968.16;5024987;28;20037;-75
2023/12/31 02:20:04;;;;;;;1.77;1.08;;;;;;;8.83;100.00;99966.38;5035157;28;20332;-75
2023/12/31 02:22:32;;;;;;;0.95;0.95;;;;;;;8.80;100.00;99951.72;5035738;28;20071;-75
2023/12/31 02:25:03;;;;;;;1.00;0.90;;;;;;;8.80;100.00;99961.31;5034650;28;20283;-75
2023/12/31 02:27:29;;;;;;;3.42;0.80;;;;;;;8.80;100.00;99958.69;5035260;28;20037;-75
2023/12/31 02:29:59;;;;;;;2.35;0.90;;;;;;;8.79;100.00;99936.97;5034356;28;20076;-75
2023/12/31 02:32:25;;;;;;;1.20;1.00;;;;;;;8.81;100.00;99923.84;5035684;28;20267;-75
2023/12/31 02:34:50;;;;;;;1.30;1.05;;;;;;;8.79;100.00;99923.09;5028966;28;20034;-75
2023/12/31 02:37:15;;;;;;;1.73;1.02;;;;;;;8.77;100.00;99917.09;5015710;28;20168;-75
2023/12/31 02:39:40;;;;;;;2.40;1.27;;;;;;;8.74;100.00;99912.84;5018699;28;20087;-75
2023/12/31 02:42:06;;;;;;;2.13;1.10;;;;;;;8.77;100.00;99912.72;5035368;28;20033;-75
2023/12/31 02:44:31;;;;;;;2.10;1.13;;;;;;;8.76;100.00;99903.16;5034903;28;20041;-75
2023/12/31 02:46:57;;;;;;;0.82;0.82;;;;;;;8.76;100.00;99897.94;5032251;28;20240;-75
2023/12/31 02:49:22;;;;;;;1.55;1.05;;;;;;;8.72;100.00;99896.41;5015434;28;20045;-75
2023/12/31 02:51:47;;;;;;;1.33;0.95;;;;;;;8.70;100.00;99887.81;5032462;28;20044;-75
2023/12/31 02:54:13;;;;;;;1.75;1.00;;;;;;;8.71;100.00;99894.72;5033153;28;20029;-75
2023/12/31 02:56:40;;;;;;;3.25;1.30;;;;;;;8.71;100.00;99879.03;5020654;28;20042;-75
2023/12/31 02:59:06;;;;;;;1.17;1.00;;;;;;;8.70;100.00;99874.75;5015037;28;20153;-75
2023/12/31 03:01:32;;;;;;;1.10;1.00;;;;;;;8.64;100.00;99867.22;5030770;28;20045;-75
2023/12/31 03:03:57;;;;;;;1.65;0.90;;;;;;;8.58;100.00;99868.34;5034870;28;20067;-75
2023/12/31 03:06:26;;;;;;;3.33;1.00;;;;;;;8.58;100.00;99850.09;5034341;28;20037;-75
2023/12/31 03:08:52;;;;;;;2.70;1.23;;;;;;;8.61;100.00;99842.13;5034594;28;20252;-75
2023/12/31 03:11:17;;;;;;;1.85;1.08;;;;;;;8.59;100.00;99835.28;5034306;28;20127;-72
2023/12/31 03:13:43;;;;;;;1.65;1.10;;;;;;;8.62;100.00;99827.28;5034790;28;20045;-73
2023/12/31 03:16:08;;;;;;;2.22;1.13;;;;;;;8.62;100.00;99829.91;5033129;28;20497;-73
2023/12/31 03:18:33;;;;;;;1.77;1.10;;;;;;;8.58;100.00;99823.97;5034814;28;20041;-73
2023/12/31 03:20:59;;;;;;;2.55;1.20;;;;;;;8.58;100.00;99818.75;5033797;28;20102;-73
2023/12/31 03:23:24;;;;;;;2.08;1.27;;;;;;;8.57;100.00;99806.66;5034518;28;20261;-73
2023/12/31 03:25:49;;;;;;;2.35;1.20;;;;;;;8.57;100.00;99803.22;5034249;28;20287;-74
2023/12/31 03:28:15;;;;;;;1.58;0.90;;;;;;;8.58;100.00;99795.28;5034565;28;20037;-74
2023/12/31 03:30:40;;;;;;;1.20;1.10;;;;;;;8.55;100.00;99778.91;5032900;28;20338;-75
2023/12/31 03:33:07;;;;;;;1.40;1.10;;;;;;;8.56;100.00;99764.97;5033181;28;20203;-75
2023/12/31 03:35:32;;;;;;;1.45;1.05;;;;;;;8.55;100.00;99769.34;5034610;28;20316;-74
2023/12/31 03:37:57;;;;;;;1.27;1.17;;;;;;;8.53;100.00;99771.19;5031401;28;20043;-74
2023/12/31 03:40:24;;;;;;;1.45;1.35;;;;;;;8.51;100.00;99759.13;5033002;28;20037;-75
2023/12/31 03:42:49;;;;;;;1.23;1.13;;;;;;;8.49;100.00;99755.75;5033293;28;20052;-75
2023/12/31 03:45:15;;;;;;;3.28;1.33;;;;;;;8.48;100.00;99752.31;5033883;28;20042;-74
2023/12/31 03:47:40;;;;;;;2.20;1.20;;;;;;;8.48;100.00;99739.25;5033413;28;20037;-75
2023/12/31 03:50:06;;;;;;;0.95;0.90;;;;;;;8.49;100.00;99740.09;5033568;28;20032;-75
2023/12/31 03:52:32;;;;;;;1.65;1.20;;;;;;;8.49;100.00;99730.50;5033869;28;20256;-75
2023/12/31 03:54:58;;;;;;;0.93;0.93;;;;;;;8.48;100.00;99721.00;5033596;28;20028;-75
2023/12/31 03:57:23;;;;;;;0.90;0.90;;;;;;;8.49;100.00;99716.59;5033935;28;20064;-74
2023/12/31 03:59:49;;;;;;;2.65;1.20;;;;;;;8.44;100.00;99701.16;5033879;28;20551;-75
2023/12/31 04:02:16;;;;;;;1.70;1.20;;;;;;;8.45;100.00;99708.09;5032920;28;20044;-75
2023/12/31 04:04:41;;;;;;;1.85;1.10;;;;;;;8.48;100.00;99699.25;5033438;28;20225;-75
2023/12/31 04:07:07;;;;;;;2.38;1.08;;;;;;;8.49;100.00;99680.91;5033445;28;20060;-75
2023/12/31 04:09:32;;;;;;;1.42;1.23;;;;;;;8.49;100.00;99665.25;5032955;28;20041;-75
2023/12/31 04:11:58;;;;;;;1.05;1.05;;;;;;;8.46;100.00;99652.38;5033495;28;20033;-75
2023/12/31 04:14:23;;;;;;;1.98;1.10;;;;;;;8.46;100.00;99649.78;5017292;28;20034;-75
2023/12/31 04:16:48;;;;;;;1.33;1.20;;;;;;;8.47;100.00;99648.00;5014081;28;20104;-75
2023/12/31 04:19:14;;;;;;;2.08;1.50;;;;;;;8.47;100.00;99650.63;5013433;28;20084;-74
2023/12/31 04:21:39;;;;;;;1.80;1.30;;;;;;;8.46;100.00;99649.78;5015447;28;20034;-75
2023/12/31 04:24:05;;;;;;;1.55;1.38;;;;;;;8.51;100.00;99647.75;5024780;28;20064;-75
2023/12/31 04:26:30;;;;;;;1.20;1.10;;;;;;;8.49;100.00;99633.94;5033638;28;20060;-75
2023/12/31 04:28:55;;;;;;;2.08;1.88;;;;;;;8.51;100.00;99632.09;5032452;28;20323;-75
2023/12/31 04:31:21;;;;;;;1.50;1.40;;;;;;;8.47;100.00;99620.13;5033733;28;20033;-75
2023/12/31 04:33:46;;;;;;;1.50;1.17;;;;;;;8.48;100.00;99610.53;5032847;28;20029;-75
2023/12/31 04:36:12;;;;;;;1.00;0.90;;;;;;;8.51;100.00;99607.78;5033249;28;20036;-75
2023/12/31 04:38:37;;;;;;;1.30;1.20;;;;;;;8.51;100.00;99599.94;5033215;28;20041;-75
2023/12/31 04:41:02;;;;;;;1.27;1.17;;;;;;;8.48;100.00;99602.72;5032855;28;20232;-75
2023/12/31 04:43:28;;;;;;;1.42;1.30;;;;;;;8.54;100.00;99603.25;5032868;28;20041;-75
2023/12/31 04:45:53;;;;;;;2.17;1.40;;;;;;;8.50;100.00;99595.69;5033242;28;20206;-75
2023/12/31 04:48:19;;;;;;;1.42;1.00;;;;;;;8.51;100.00;99582.53;5033768;28;20387;-75
2023/12/31 04:50:44;;;;;;;2.00;1.27;;;;;;;8.52;100.00;99597.25;5032605;28;20263;-75
2023/12/31 04:53:09;;;;;;;1.17;1.08;;;;;;;8.49;100.00;99571.31;5033003;28;20045;-75
2023/12/31 04:55:35;;;;;;;1.55;1.13;;;;;;;8.43;100.00;99577.72;5032959;28;20065;-75
2023/12/31 04:58:00;;;;;;;1.25;1.13;;;;;;;8.44;100.00;99581.16;5032924;28;20038;-75
2023/12/31 05:00:25;;;;;;;1.40;1.30;;;;;;;8.42;100.00;99575.19;5033286;28;20037;-75
2023/12/31 05:02:51;;;;;;;1.50;1.40;;;;;;;8.39;100.00;99563.13;5033177;28;20360;-75
2023/12/31 05:05:16;;;;;;;4.35;1.30;;;;;;;8.45;100.00;99564.59;5032764;28;20221;-75
2023/12/31 05:07:42;;;;;;;1.45;1.35;;;;;;;8.46;100.00;99548.03;5033486;28;20303;-75
2023/12/31 05:10:07;;;;;;;1.40;1.30;;;;;;;8.43;100.00;99528.13;5032231;28;20113;-75
2023/12/31 05:12:33;;;;;;;2.47;1.02;;;;;;;8.49;100.00;99531.34;5033365;28;20030;-75
2023/12/31 05:14:58;;;;;;;1.38;1.20;;;;;;;8.46;100.00;99524.53;5034862;28;20037;-75
2023/12/31 05:17:24;;;;;;;1.20;1.05;;;;;;;8.39;100.00;99520.53;5037385;28;20096;-77
2023/12/31 05:19:49;;;;;;;1.42;1.33;;;;;;;8.41;100.00;99514.31;5036190;28;20032;-75
2023/12/31 05:22:15;;;;;;;1.42;1.20;;;;;;;8.39;100.00;99513.53;5036735;28;20384;-75
2023/12/31 05:24:40;;;;;;;1.38;1.23;;;;;;;8.39;100.00;99510.09;5036281;28;20044;-75
2023/12/31 05:27:05;;;;;;;1.25;1.17;;;;;;;8.40;100.00;99504.81;5036063;28;20061;-75
2023/12/31 05:29:30;;;;;;;1.80;1.20;;;;;;;8.41;100.00;99493.44;5036965;28;20167;-74
2023/12/31 05:31:56;;;;;;;1.40;1.30;;;;;;;8.39;100.00;99481.41;5035843;28;20095;-74
2023/12/31 05:34:21;;;;;;;1.30;1.20;;;;;;;8.35;100.00;99474.66;5036751;28;20103;-75
2023/12/31 05:36:47;;;;;;;1.50;1.40;;;;;;;8.37;100.00;99478.88;5036095;28;20100;-75
2023/12/31 05:39:12;;;;;;;1.20;1.10;;;;;;;8.36;100.00;99486.78;5036360;28;20045;-75
2023/12/31 05:41:37;;;;;;;3.28;1.70;;;;;;;8.32;100.00;99475.66;5024645;28;20044;-75
2023/12/31 05:44:03;;;;;;;2.22;1.67;;;;;;;8.32;100.00;99467.00;5016258;28;20058;-75
2023/12/31 05:46:29;;;;;;;1.65;1.55;;;;;;;8.34;100.00;99460.75;5021513;28;20091;-75
2023/12/31 05:48:55;;;;;;;1.60;1.50;;;;;;;8.36;100.00;99461.53;5016209;28;20060;-75
2023/12/31 05:51:20;;;;;;;4.55;1.70;;;;;;;8.38;100.00;99458.84;5026001;28;20264;-75
2023/12/31 05:53:45;;;;;;;1.40;1.30;;;;;;;8.37;100.00;99451.94;5026241;28;20053;-74
2023/12/31 05:56:11;;;;;;;1.52;1.30;;;;;;;8.37;100.00;99450.19;5020151;28;20026;-75
2023/12/31 05:58:37;;;;;;;1.48;1.38;;;;;;;8.40;100.00;99451.75;5035998;28;20033;-75
2023/12/31 06:01:02;;;;;;;1.70;1.60;;;;;;;8.38;100.00;99438.78;5035302;28;20409;-75
2023/12/31 06:03:28;;;;;;;2.65;1.60;;;;;;;8.38;100.00;99445.78;5036412;28;20337;-75
2023/12/31 06:05:53;;;;;;;2.85;1.50;;;;;;;8.37;100.00;99437.13;5035632;28;20236;-74
2023/12/31 06:08:18;;;;;;;1.92;1.42;;;;;;;8.42;100.00;99436.91;5036137;28;20256;-75
2023/12/31 06:10:44;;;;;;;1.50;1.40;;;;;;;8.38;100.00;99430.13;5035941;28;20229;-77
2023/12/31 06:13:09;;;;;;;1.52;1.42;;;;;;;8.37;100.00;99431.09;5034543;28;20310;-75
2023/12/31 06:15:34;;;;;;;1.70;1.58;;;;;;;8.36;100.00;99422.41;5036381;28;20069;-75
2023/12/31 06:18:00;;;;;;;2.05;1.58;;;;;;;8.38;100.00;99422.31;5034545;28;20033;-75
2023/12/31 06:20:25;;;;;;;1.73;1.58;;;;;;;8.38;100.00;99407.50;5035680;28;20071;-75
2023/12/31 06:22:50;;;;;;;1.80;1.70;;;;;;;8.36;100.00;99409.34;5034902;28;20097;-75
2023/12/31 06:25:16;;;;;;;2.92;1.60;;;;;;;8.39;100.00;99418.78;5035167;28;20095;-75
2023/12/31 06:27:44;;;;;;;1.52;1.42;;;;;;;8.43;100.00;99404.69;5035043;28;20033;-74
2023/12/31 06:30:09;;;;;;;1.77;1.67;;;;;;;8.47;100.00;99389.69;5035407;28;20355;-74
2023/12/31 06:32:35;;;;;;;1.70;1.60;;;;;;;8.53;100.00;99386.75;5032083;28;20033;-74
2023/12/31 06:35:01;;;;;;;1.63;1.52;;;;;;;8.56;100.00;99397.03;5034893;28;20079;-75
2023/12/31 06:37:27;;;;;;;1.73;1.60;;;;;;;8.48;100.00;99383.53;5034992;28;20358;-75
2023/12/31 06:39:52;;;;;;;2.63;1.90;;;;;;;8.47;100.00;99394.91;5035171;28;20344;-75
2023/12/31 06:42:17;;;;;;;3.13;1.73;;;;;;;8.49;100.00;99378.25;5034705;28;20033;-76
2023/12/31 06:44:43;;;;;;;2.47;1.90;;;;;;;8.49;100.00;99370.41;5035276;28;20049;-75
2023/12/31 06:47:09;;;;;;;1.60;1.50;;;;;;;8.47;100.00;99369.66;5034657;28;20437;-75
2023/12/31 06:49:34;;;;;;;1.90;1.80;;;;;;;8.51;100.00;99370.34;5017493;28;20124;-75
2023/12/31 06:52:00;;;;;;;1.88;1.77;;;;;;;8.51;100.00;99354.69;5034883;28;20071;-75
2023/12/31 06:54:26;;;;;;;1.45;1.35;;;;;;;8.51;100.00;99349.47;5034595;28;20037;-75
2023/12/31 06:56:52;;;;;;;1.90;1.80;;;;;;;8.51;100.00;99359.91;5033471;28;20067;-75
2023/12/31 06:59:17;;;;;;;1.90;1.80;;;;;;;8.50;100.00;99353.00;5034246;28;20293;-75
2023/12/31 07:01:43;;;;;;;1.88;1.77;;;;;;;8.47;100.00;99354.00;5035229;28;20394;-75
2023/12/31 07:04:08;;;;;;;3.05;2.05;;;;;;;8.47;100.00;99348.78;5033758;28;20178;-75
2023/12/31 07:06:33;;;;;;;1.67;1.58;;;;;;;8.47;100.00;99345.34;5031568;28;20324;-75
2023/12/31 07:08:59;;;;;;;1.90;1.80;;;;;;;8.48;100.00;99340.06;5034216;28;20065;-75
2023/12/31 07:11:25;;;;;;;1.70;1.60;;;;;;;8.49;100.00;99335.66;5034242;28;20053;-75
2023/12/31 07:13:50;;;;;;;1.73;1.63;;;;;;;8.45;100.00;99330.59;5034173;28;20347;-75
2023/12/31 07:16:16;;;;;;;2.15;1.90;;;;;;;8.41;100.00;99323.84;5034631;28;20360;-75
2023/12/31 07:18:42;;;;;;;1.92;1.63;;;;;;;8.40;100.00;99323.94;5016656;28;20029;-75
2023/12/31 07:21:07;;;;;;;2.80;2.42;;;;;;;8.42;100.00;99314.28;5025061;28;20037;-75
2023/12/31 07:23:33;;;;;;;2.13;1.80;;;;;;;8.42;100.00;99314.28;5046859;28;20040;-75
2023/12/31 07:25:59;;;;;;;3.00;1.77;;;;;;;8.43;100.00;99313.38;5014290;28;20137;-75
2023/12/31 07:28:24;;;;;;;2.25;2.08;;;;;;;8.41;100.00;99318.63;5030380;28;20041;-75
2023/12/31 07:30:50;;;;;;;2.95;1.73;;;;;;;8.43;100.00;99313.38;5031524;28;20061;-75
2023/12/31 07:33:15;;;;;;;1.85;1.75;;;;;;;8.44;100.00;99312.44;5033453;28;20112;-75
2023/12/31 07:35:41;;;;;;;3.38;1.63;;;;;;;8.44;100.00;99312.44;5026761;28;20071;-75
2023/12/31 07:38:08;;;;;;;2.10;1.88;;;;;;;8.43;100.00;99303.78;5022060;28;20294;-75
2023/12/31 07:40:34;;;;;;;2.10;1.70;;;;;;;8.45;100.00;99312.34;5027341;28;20116;-75
2023/12/31 07:42:59;;;;;;;1.90;1.80;;;;;;;8.43;100.00;99301.16;5026389;28;20378;-75
2023/12/31 07:45:25;;;;;;;1.90;1.80;;;;;;;8.45;100.00;99301.06;5024202;28;20466;-75
2023/12/31 07:47:53;;;;;;;2.50;2.30;;;;;;;8.43;100.00;99301.16;5030354;28;20040;-75
2023/12/31 07:50:18;;;;;;;4.35;2.13;;;;;;;8.43;100.00;99300.31;5040353;28;20037;-75
2023/12/31 07:52:44;;;;;;;3.38;1.92;;;;;;;8.44;100.00;99297.63;5027998;28;20029;-77
2023/12/31 07:55:09;;;;;;;2.50;1.83;;;;;;;8.45;100.00;99303.69;5022514;28;20037;-75
2023/12/31 07:57:35;;;;;;;2.35;1.92;;;;;;;8.41;100.00;99294.31;5025794;28;20122;-75
2023/12/31 08:00:04;;;;;;;3.00;2.15;;;;;;;8.41;100.00;99292.56;5032819;28;20259;-75
2023/12/31 08:02:29;;;;;;;2.33;2.13;;;;;;;8.39;100.00;99306.63;5027644;28;20364;-75
2023/12/31 08:04:55;;;;;;;2.97;2.00;;;;;;;8.36;100.00;99317.22;5017276;28;20442;-76
2023/12/31 08:07:21;;;;;;;2.10;2.00;;;;;;;8.33;100.00;99318.25;5013898;28;20042;-76
2023/12/31 08:09:46;;;;;;;2.75;2.05;;;;;;;8.34;100.00;99319.91;5017668;28;20411;-76
2023/12/31 08:12:11;;;;;;;2.42;2.00;;;;;;;8.31;100.00;99330.50;5033223;28;20286;-75
2023/12/31 08:14:37;;;;;;;2.67;2.20;;;;;;;8.35;100.00;99336.38;5032658;28;20041;-75
2023/12/31 08:17:03;;;;;;;1.23;1.13;;;;;;;8.27;100.00;99308.13;5030286;28;20033;-76
2023/12/31 08:19:28;;;;;;;1.30;1.20;;;;;;;8.22;100.00;99323.19;5033656;28;20394;-75
2023/12/31 08:21:53;;;;;;;0.60;0.60;;;;;;;8.14;100.00;99305.34;5032373;28;20033;-75
2023/12/31 08:24:20;;;;;;;1.33;1.00;;;;;;;8.12;100.00;99316.81;5033973;28;20087;-76
2023/12/31 08:26:45;;;;;;;1.25;1.00;;;;;;;8.07;100.00;99330.09;5016845;28;20072;-75
2023/12/31 08:29:11;;;;;;;0.93;0.70;;;;;;;8.03;100.00;99321.59;5027840;28;20356;-75
2023/12/31 08:31:36;;;;;;;1.83;0.90;;;;;;;8.02;100.00;99312.09;5033271;28;20067;-76
2023/12/31 08:34:01;;;;;;;2.03;0.80;;;;;;;8.05;100.00;99311.09;5033492;28;20431;-76
2023/12/31 08:36:27;;;;;;;6.43;1.10;;;;;;;8.06;100.00;99315.38;5030662;28;20053;-76
2023/12/31 08:38:52;;;;;;;2.22;1.10;;;;;;;8.00;100.00;99313.94;5028755;28;20025;-76
2023/12/31 08:41:17;;;;;;;4.10;0.95;;;;;;;7.96;100.00;99307.19;5027492;28;20025;-76
2023/12/31 08:43:43;;;;;;;5.97;1.00;;;;;;;7.97;100.00;99314.13;5025072;28;20111;-75
2023/12/31 08:46:10;;;;;;;2.78;0.77;;;;;;;7.96;100.00;99317.63;5020360;28;20430;-76
2023/12/31 08:48:35;;;;;;;3.33;0.75;;;;;;;7.95;100.00;99328.13;5023740;28;20041;-75
2023/12/31 08:51:02;;;;;;;0.63;0.60;;;;;;;7.93;100.00;99320.44;5026234;28;20251;-75
2023/12/31 08:53:27;;;;;;;1.77;0.70;;;;;;;7.92;100.00;99334.38;5027998;28;20205;-76
2023/12/31 08:55:53;;;;;;;3.15;0.80;;;;;;;7.84;100.00;99342.59;5023400;28;20052;-76
2023/12/31 08:58:18;;;;;;;3.10;0.73;;;;;;;7.83;100.00;99332.25;5023597;28;20049;-76
2023/12/31 09:00:44;;;;;;;0.82;0.50;;;;;;;7.84;100.00;99345.22;5021049;28;20113;-76
2023/12/31 09:03:09;;;;;;;1.45;0.43;;;;;;;7.84;100.00;99339.13;5030339;28;20037;-76
2023/12/31 09:05:35;;;;;;;1.08;0.57;;;;;;;7.84;100.00;99337.38;5031234;28;20261;-76
2023/12/31 09:08:02;;;;;;;3.13;0.70;;;;;;;7.86;100.00;99338.16;5027714;28;20048;-76
2023/12/31 09:10:27;;;;;;;2.80;0.47;;;;;;;7.85;100.00;99336.44;5027440;28;20048;-76
2023/12/31 09:12:53;;;;;;;1.10;0.70;;;;;;;7.88;100.00;99325.88;5029798;28;20037;-75
2023/12/31 09:15:22;;;;;;;4.22;0.85;;;;;;;7.85;100.00;99323.41;5025079;28;20029;-74
2023/12/31 09:17:48;;;;;;;1.13;0.77;;;;;;;7.85;100.00;99328.63;5029185;28;20376;-74
2023/12/31 09:20:13;;;;;;;0.47;0.40;;;;;;;7.93;100.00;99323.03;5030780;28;20332;-74
2023/12/31 09:22:39;;;;;;;1.77;0.60;;;;;;;7.93;100.00;99329.97;5031631;28;20449;-74
2023/12/31 09:25:08;;;;;;;2.13;0.60;;;;;;;7.95;100.00;99334.22;5032882;28;20037;-74
2023/12/31 09:27:33;;;;;;;;;;;;;;;7.86;100.00;99319.06;5031551;28;20360;-74
2023/12/31 09:29:59;;;;;;;5.90;0.73;;;;;;;7.90;100.00;99328.41;5030264;28;20177;-74
2023/12/31 09:32:24;;;;;;;0.50;0.50;;;;;;;7.94;100.00;99327.31;5023767;28;20211;-74
2023/12/31 09:34:49;;;;;;;2.28;0.50;;;;;;;7.94;100.00;99327.31;5022908;28;20041;-73
2023/12/31 09:37:18;;;;;;;1.48;0.65;;;;;;;7.93;100.00;99333.47;5019287;28;20030;-73
2023/12/31 09:39:44;;;;;;;;;;;;;;;7.95;100.00;99335.97;5017479;28;20309;-73
2023/12/31 09:42:12;;;;;;;1.50;0.68;;;;;;;7.99;100.00;99327.91;5022176;28;19916;-73
2023/12/31 09:44:40;;;;;;;1.23;0.57;;;;;;;7.97;100.00;99324.53;5021934;28;20072;-73
2023/12/31 09:47:07;;;;;;;1.38;0.60;;;;;;;7.99;100.00;99327.91;5023186;28;20085;-74
2023/12/31 09:49:36;;;;;;;1.13;0.70;;;;;;;8.01;100.00;99327.81;5024947;28;20092;-73
2023/12/31 09:52:10;;;;;;;1.00;0.50;;;;;;;8.06;100.00;99328.41;5022837;28;20052;-73
2023/12/31 09:54:40;;;;;;;1.60;0.80;;;;;;;8.07;100.00;99325.69;5023173;28;20333;-73
2023/12/31 09:57:06;;;;;;;1.88;0.60;;;;;;;8.08;100.00;99334.38;5021646;28;20021;-74
2023/12/31 09:59:32;;;;;;;1.15;0.77;;;;;;;8.11;100.00;99320.34;5023442;28;20021;-73
2023/12/31 10:02:04;;;;;;;2.15;0.80;;;;;;;8.14;100.00;99322.78;5021495;28;20051;-73
2023/12/31 10:04:31;;;;;;;3.35;0.88;;;;;;;8.15;100.00;99324.44;5022724;28;20095;-73
2023/12/31 10:06:57;;;;;;;1.00;0.90;;;;;;;8.14;100.00;99325.38;5023863;28;20360;-73
2023/12/31 10:09:27;;;;;;;2.67;0.57;;;;;;;8.12;100.00;99335.06;5023135;28;20033;-73
2023/12/31 10:11:54;;;;;;;0.90;0.90;;;;;;;8.13;100.00;99323.69;5022187;28;20136;-73
2023/12/31 10:14:19;;;;;;;0.77;0.70;;;;;;;8.11;100.00;99326.38;5024341;28;20044;-74
2023/12/31 10:16:46;;;;;;;1.55;0.80;;;;;;;8.09;100.00;99325.63;5023731;28;20089;-74
2023/12/31 10:19:15;;;;;;;1.05;0.95;;;;;;;8.10;100.00;99313.44;5021772;28;20033;-74
2023/12/31 10:21:44;;;;;;;1.15;0.82;;;;;;;8.13;100.00;99318.47;5023626;28;20037;-74
2023/12/31 10:24:10;;;;;;;0.75;0.70;;;;;;;8.14;100.00;99318.41;5024053;28;20360;-73
2023/12/31 10:26:36;;;;;;;0.82;0.70;;;;;;;8.14;100.00;99320.16;5022436;28;20034;-73
2023/12/31 10:29:04;;;;;;;0.98;0.70;;;;;;;8.17;100.00;99301.75;5021961;28;20033;-73
2023/12/31 10:31:31;;;;;;;1.10;1.00;;;;;;;8.18;100.00;99309.47;5022490;28;20044;-74
2023/12/31 10:33:56;;;;;;;1.33;0.70;;;;;;;8.17;100.00;99305.19;5023314;28;20060;-74
2023/12/31 10:36:25;;;;;;;0.82;0.65;;;;;;;8.07;100.00;99314.44;5022667;28;20021;-74
2023/12/31 10:38:51;;;;;;;;;;;;;;;8.10;100.00;99314.28;5023989;28;20044;-74
2023/12/31 10:41:21;;;;;;;0.60;0.52;;;;;;;8.08;100.00;99321.34;5021594;28;19920;-74
2023/12/31 10:43:48;;;;;;;2.25;0.73;;;;;;;8.08;100.00;99321.34;5024353;28;20113;-74
2023/12/31 10:46:15;;;;;;;3.35;0.90;;;;;;;7.98;100.00;99338.41;5022336;28;20044;-74
2023/12/31 10:49:00;;;;;;;1.55;0.70;;;;;;;7.96;100.00;99342.88;5023977;28;20360;-74
2023/12/31 10:51:26;;;;;;;1.58;0.80;;;;;;;7.92;100.00;99338.75;5023528;28;20038;-74
2023/12/31 10:53:56;;;;;;;2.60;0.73;;;;;;;7.90;100.00;99361.44;5020889;28;20057;-74
2023/12/31 10:56:21;;;;;;;1.85;0.80;;;;;;;7.83;100.00;99353.94;5021860;28;20029;-74
2023/12/31 10:58:47;;;;;;;2.55;0.70;;;;;;;7.65;100.00;99345.31;5023573;28;20235;-74
2023/12/31 11:01:13;;;;;;;1.98;0.70;;;;;;;7.62;100.00;99378.50;5022366;28;20038;-74
2023/12/31 11:03:41;;;;;;;2.28;0.60;;;;;;;7.64;100.00;99380.13;5022436;28;20044;-74
2023/12/31 11:06:07;;;;;;;1.43;0.80;;;;;;;7.64;100.00;99387.09;5020390;28;20057;-74
2023/12/31 11:08:34;;;;;;;3.78;0.73;;;;;;;7.60;100.00;99394.22;5022347;28;20030;-74
2023/12/31 11:10:59;;;;;;;4.43;0.80;;;;;;;7.57;100.00;99404.00;5021525;28;20043;-74
2023/12/31 11:13:27;;;;;;;2.00;0.73;;;;;;;7.57;100.00;99398.78;5023427;28;20301;-74
2023/12/31 11:15:55;;;;;;;2.70;0.88;;;;;;;7.57;100.00;99393.56;5022010;28;20057;-74
2023/12/31 11:19:07;;;;;;;3.05;0.93;;;;;;;7.62;100.00;99405.44;5022373;28;20296;-74
2023/12/31 11:21:44;;;;;;;3.03;0.80;;;;;;;7.63;100.00;99394.06;4960792;28;20105;-74
2023/12/31 11:24:14;;;;;;;1.88;0.82;;;;;;;7.64;100.00;99393.16;4964286;28;20050;-74
2023/12/31 11:26:42;;;;;;;2.10;0.70;;;;;;;7.68;100.00;99396.44;5005554;28;20396;-74